createdAt,value
2019-04-27T00:00:14.321Z,60.60
2019-04-27T00:03:02.241Z,60.20
2019-04-27T00:05:32.431Z,60.10
2019-04-27T00:08:15.629Z,60.40
2019-04-27T00:10:53.260Z,60.00
2019-04-27T00:13:22.939Z,60.20
2019-04-27T00:15:56.578Z,60.20
2019-04-27T00:18:45.464Z,60.00
2019-04-27T00:21:27.206Z,60.50
2019-04-27T00:23:56.027Z,60.00
2019-04-27T00:26:25.101Z,60.10
2019-04-27T00:28:53.953Z,60.10
2019-04-27T00:31:23.472Z,59.90
2019-04-27T00:33:53.588Z,60.00
2019-04-27T00:36:24.139Z,59.80
2019-04-27T00:38:54.576Z,59.90
2019-04-27T00:41:24.947Z,60.10
2019-04-27T00:43:53.753Z,60.10
2019-04-27T00:46:22.925Z,60.20
2019-04-27T00:48:53.295Z,60.20
2019-04-27T00:51:23.157Z,60.20
2019-04-27T00:53:53.555Z,60.20
2019-04-27T00:56:33.831Z,60.20
2019-04-27T00:59:19.266Z,60.40
2019-04-27T01:01:55.382Z,60.70
2019-04-27T01:04:25.887Z,60.50
2019-04-27T01:06:54.700Z,60.80
2019-04-27T01:09:24.198Z,61.10
2019-04-27T01:11:53.472Z,61.00
2019-04-27T01:14:25.345Z,61.20
2019-04-27T01:16:54.191Z,61.30
2019-04-27T01:19:24.813Z,61.50
2019-04-27T01:21:53.552Z,61.40
2019-04-27T01:24:25.341Z,61.60
2019-04-27T01:27:10.794Z,62.00
2019-04-27T01:29:58.908Z,62.00
2019-04-27T01:32:29.183Z,62.30
2019-04-27T01:34:59.194Z,62.00
2019-04-27T01:37:28.573Z,62.10
2019-04-27T01:39:59.044Z,62.00
2019-04-27T01:42:29.395Z,62.30
2019-04-27T01:44:59.513Z,62.20
2019-04-27T01:47:28.916Z,62.20
2019-04-27T01:49:58.512Z,62.30
2019-04-27T01:52:27.314Z,62.60
2019-04-27T01:54:56.105Z,62.50
2019-04-27T01:57:25.074Z,62.40
2019-04-27T01:59:53.891Z,62.50
2019-04-27T02:02:24.286Z,63.40
2019-04-27T02:05:10.930Z,62.90
2019-04-27T02:07:40.388Z,63.10
2019-04-27T02:10:10.202Z,62.90
2019-04-27T02:12:39.712Z,63.00
2019-04-27T02:15:10.553Z,63.50
2019-04-27T02:17:39.476Z,63.70
2019-04-27T02:20:09.757Z,63.80
2019-04-27T02:22:38.617Z,63.70
2019-04-27T02:25:11.161Z,63.60
2019-04-27T02:27:41.555Z,63.80
2019-04-27T02:30:12.463Z,64.00
2019-04-27T02:32:45.830Z,63.90
2019-04-27T02:35:14.729Z,64.10
2019-04-27T02:37:43.406Z,64.20
2019-04-27T02:40:39.759Z,64.30
2019-04-27T02:43:10.785Z,64.50
2019-04-27T02:45:40.310Z,64.50
2019-04-27T02:48:10.415Z,64.30
2019-04-27T02:50:39.960Z,64.30
2019-04-27T02:53:11.145Z,64.30
2019-04-27T02:55:39.855Z,64.60
2019-04-27T02:58:12.277Z,64.20
2019-04-27T03:00:39.971Z,64.40
2019-04-27T03:03:10.732Z,64.80
2019-04-27T03:05:40.112Z,64.70
2019-04-27T03:08:10.241Z,65.20
2019-04-27T03:10:40.239Z,65.70
2019-04-27T03:13:11.217Z,65.70
2019-04-27T03:15:50.244Z,65.60
2019-04-27T03:18:20.620Z,65.70
2019-04-27T03:20:51.176Z,65.70
2019-04-27T03:23:20.121Z,65.70
2019-04-27T03:25:50.726Z,66.00
2019-04-27T03:28:20.178Z,65.90
2019-04-27T03:30:52.191Z,66.00
2019-04-27T03:33:22.335Z,66.00
2019-04-27T03:35:52.486Z,66.50
2019-04-27T03:38:20.735Z,66.60
2019-04-27T03:40:50.716Z,66.70
2019-04-27T03:43:22.000Z,66.90
2019-04-27T03:45:52.396Z,66.90
2019-04-27T03:48:21.474Z,67.20
2019-04-27T03:50:51.876Z,67.50
2019-04-27T03:53:44.603Z,67.40
2019-04-27T03:56:23.723Z,67.50
2019-04-27T03:59:06.027Z,67.80
2019-04-27T04:01:34.814Z,68.00
2019-04-27T04:04:03.553Z,68.10
2019-04-27T04:06:32.462Z,68.50
2019-04-27T04:09:01.497Z,68.80
2019-04-27T04:11:34.965Z,69.10
2019-04-27T04:14:05.435Z,68.90
2019-04-27T04:16:35.798Z,68.80
2019-04-27T04:19:06.512Z,69.40
2019-04-27T04:21:35.580Z,69.30
2019-04-27T04:24:04.413Z,69.30
2019-04-27T04:26:33.286Z,70.50
2019-04-27T04:29:02.176Z,69.80
2019-04-27T04:31:33.237Z,70.10
2019-04-27T04:34:01.651Z,70.60
2019-04-27T04:36:30.547Z,70.40
2019-04-27T04:39:00.489Z,70.70
2019-04-27T04:41:43.231Z,70.50
2019-04-27T04:44:12.476Z,70.50
2019-04-27T04:47:00.094Z,70.70
2019-04-27T04:49:29.610Z,69.50
2019-04-27T04:51:59.459Z,69.30
2019-04-27T04:54:29.999Z,69.30
2019-04-27T04:56:59.515Z,69.50
2019-04-27T04:59:29.206Z,69.70
2019-04-27T05:02:00.257Z,69.50
2019-04-27T05:04:29.186Z,69.80
2019-04-27T05:06:59.223Z,69.60
2019-04-27T05:09:29.533Z,69.60
2019-04-27T05:12:01.513Z,69.50
2019-04-27T05:14:30.416Z,69.30
2019-04-27T05:16:59.316Z,69.80
2019-04-27T05:19:28.851Z,69.80
2019-04-27T05:21:59.307Z,69.70
2019-04-27T05:24:29.274Z,69.80
2019-04-27T05:26:59.019Z,69.40
2019-04-27T05:29:29.272Z,69.40
2019-04-27T05:31:59.222Z,69.20
2019-04-27T05:34:29.420Z,69.10
2019-04-27T05:36:59.375Z,69.10
2019-04-27T05:39:29.964Z,69.00
2019-04-27T05:41:59.742Z,69.30
2019-04-27T05:44:33.299Z,68.60
2019-04-27T05:47:11.745Z,68.70
2019-04-27T05:49:44.537Z,68.50
2019-04-27T05:52:29.633Z,68.30
2019-04-27T05:54:59.309Z,68.30
2019-04-27T05:57:31.246Z,68.40
2019-04-27T06:00:02.201Z,68.40
2019-04-27T06:02:30.527Z,68.50
2019-04-27T06:05:00.001Z,68.50
2019-04-27T06:07:29.812Z,68.30
2019-04-27T06:09:59.844Z,68.20
2019-04-27T06:12:29.681Z,67.90
2019-04-27T06:14:59.884Z,68.00
2019-04-27T06:17:29.883Z,67.80
2019-04-27T06:19:59.629Z,67.90
2019-04-27T06:22:29.269Z,67.70
2019-04-27T06:25:00.123Z,67.40
2019-04-27T06:27:30.623Z,67.50
2019-04-27T06:29:59.549Z,67.10
2019-04-27T06:32:29.602Z,67.00
2019-04-27T06:34:58.968Z,67.80
2019-04-27T06:37:29.306Z,67.50
2019-04-27T06:39:59.715Z,67.50
2019-04-27T06:42:29.730Z,67.00
2019-04-27T06:44:59.899Z,66.70
2019-04-27T06:47:29.595Z,66.30
2019-04-27T06:49:58.771Z,66.50
2019-04-27T06:52:29.229Z,67.00
2019-04-27T06:54:58.139Z,67.10
2019-04-27T06:57:26.953Z,67.10
2019-04-27T06:59:55.913Z,66.70
2019-04-27T07:02:24.746Z,66.90
2019-04-27T07:04:53.573Z,66.70
2019-04-27T07:07:22.319Z,66.40
2019-04-27T07:09:51.077Z,66.00
2019-04-27T07:12:19.919Z,66.20
2019-04-27T07:14:52.915Z,66.40
2019-04-27T07:17:19.270Z,66.20
2019-04-27T07:19:49.717Z,66.10
2019-04-27T07:22:20.090Z,66.10
2019-04-27T07:24:49.175Z,66.20
2019-04-27T07:27:19.146Z,65.90
2019-04-27T07:29:49.491Z,65.80
2019-04-27T07:32:19.246Z,66.10
2019-04-27T07:34:49.639Z,66.20
2019-04-27T07:37:19.569Z,66.30
2019-04-27T07:39:49.169Z,66.60
2019-04-27T07:42:20.509Z,66.30
2019-04-27T07:44:50.144Z,66.00
2019-04-27T07:47:20.506Z,67.00
2019-04-27T07:49:50.549Z,67.40
2019-04-27T07:52:20.602Z,67.10
2019-04-27T07:54:49.593Z,66.80
2019-04-27T07:57:19.805Z,67.20
2019-04-27T07:59:50.094Z,65.80
2019-04-27T08:02:19.222Z,65.90
2019-04-27T08:04:50.312Z,65.40
2019-04-27T08:07:19.642Z,67.60
2019-04-27T08:09:49.676Z,66.80
2019-04-27T08:12:20.736Z,66.40
2019-04-27T08:14:49.235Z,66.30
2019-04-27T08:17:19.157Z,66.00
2019-04-27T08:19:49.606Z,65.90
2019-04-27T08:22:19.388Z,65.50
2019-04-27T08:24:49.600Z,64.70
2019-04-27T08:27:20.667Z,66.00
2019-04-27T08:29:51.053Z,65.70
2019-04-27T08:32:21.481Z,65.40
2019-04-27T08:34:50.310Z,65.60
2019-04-27T08:37:19.046Z,66.60
2019-04-27T08:39:49.421Z,66.20
2019-04-27T08:42:19.424Z,66.50
2019-04-27T08:44:49.718Z,67.00
2019-04-27T08:47:19.516Z,65.30
2019-04-27T08:49:49.123Z,66.50
2019-04-27T08:52:19.398Z,65.40
2019-04-27T08:54:49.328Z,65.40
2019-04-27T08:57:18.951Z,67.20
2019-04-27T08:59:49.275Z,66.10
2019-04-27T09:02:19.615Z,65.10
2019-04-27T09:04:49.528Z,65.90
2019-04-27T09:07:31.961Z,65.20
2019-04-27T09:10:02.378Z,65.50
2019-04-27T09:12:50.081Z,66.30
2019-04-27T09:15:39.171Z,65.80
2019-04-27T09:18:08.990Z,66.40
2019-04-27T09:20:39.580Z,66.40
2019-04-27T09:23:09.859Z,65.00
2019-04-27T09:25:39.624Z,63.70
2019-04-27T09:28:08.865Z,63.10
2019-04-27T09:30:39.302Z,62.90
2019-04-27T09:33:08.292Z,62.70
2019-04-27T09:35:37.125Z,62.40
2019-04-27T09:38:07.057Z,62.70
2019-04-27T09:40:36.154Z,63.40
2019-04-27T09:43:04.892Z,63.00
2019-04-27T09:45:33.697Z,61.40
2019-04-27T09:48:06.661Z,61.10
2019-04-27T09:50:36.064Z,60.70
2019-04-27T09:53:06.409Z,61.00
2019-04-27T09:55:36.904Z,58.90
2019-04-27T09:58:05.866Z,59.40
2019-04-27T10:00:36.318Z,59.50
2019-04-27T10:03:06.614Z,59.30
2019-04-27T10:05:36.768Z,59.50
2019-04-27T10:08:06.191Z,59.10
2019-04-27T10:10:36.955Z,59.20
2019-04-27T10:13:07.021Z,59.00
2019-04-27T10:15:35.946Z,58.60
2019-04-27T10:18:06.122Z,57.20
2019-04-27T10:20:39.041Z,57.10
2019-04-27T10:23:06.210Z,57.90
2019-04-27T10:25:37.231Z,57.10
2019-04-27T10:28:06.794Z,57.30
2019-04-27T10:30:36.016Z,56.90
2019-04-27T10:33:07.716Z,57.10
2019-04-27T10:35:36.316Z,58.60
2019-04-27T10:38:05.302Z,57.30
2019-04-27T10:40:34.152Z,57.40
2019-04-27T10:43:03.043Z,56.20
2019-04-27T10:45:31.846Z,55.50
2019-04-27T10:48:00.664Z,54.10
2019-04-27T10:50:29.538Z,54.80
2019-04-27T10:52:59.295Z,54.10
2019-04-27T10:55:28.334Z,54.30
2019-04-27T10:57:57.152Z,53.90
2019-04-27T11:00:27.870Z,55.30
2019-04-27T11:02:58.420Z,54.90
2019-04-27T11:05:31.265Z,55.30
2019-04-27T11:08:00.449Z,54.30
2019-04-27T11:10:29.506Z,53.00
2019-04-27T11:12:58.290Z,53.80
2019-04-27T11:15:27.108Z,52.50
2019-04-27T11:17:56.274Z,53.50
2019-04-27T11:20:27.480Z,52.50
2019-04-27T11:23:06.702Z,53.00
2019-04-27T11:25:26.418Z,53.00
2019-04-27T11:27:55.929Z,52.20
2019-04-27T11:30:25.732Z,51.90
2019-04-27T11:32:58.943Z,52.30
2019-04-27T11:35:41.434Z,51.30
2019-04-27T11:38:10.225Z,51.40
2019-04-27T11:40:38.995Z,51.50
2019-04-27T11:43:07.834Z,51.70
2019-04-27T11:45:36.849Z,50.20
2019-04-27T11:48:05.879Z,52.00
2019-04-27T11:50:35.806Z,52.00
2019-04-27T11:53:06.203Z,51.00
2019-04-27T11:55:35.214Z,51.70
2019-04-27T11:58:04.047Z,51.30
2019-04-27T12:00:33.051Z,51.70
2019-04-27T12:03:01.916Z,51.70
2019-04-27T12:05:31.252Z,50.10
2019-04-27T12:08:01.413Z,50.70
2019-04-27T12:10:30.229Z,50.10
2019-04-27T12:12:59.038Z,50.40
2019-04-27T12:15:27.847Z,50.60
2019-04-27T12:17:56.602Z,49.60
2019-04-27T12:20:25.898Z,50.20
2019-04-27T12:22:54.865Z,51.50
2019-04-27T12:25:23.662Z,50.00
2019-04-27T12:28:10.376Z,48.80
2019-04-27T12:30:40.794Z,49.70
2019-04-27T12:33:10.115Z,49.60
2019-04-27T12:35:38.930Z,49.60
2019-04-27T12:38:07.746Z,49.80
2019-04-27T12:40:36.730Z,49.40
2019-04-27T12:43:05.596Z,49.90
2019-04-27T12:45:36.949Z,50.50
2019-04-27T12:48:06.771Z,50.50
2019-04-27T12:50:36.185Z,50.50
2019-04-27T12:53:18.808Z,50.30
2019-04-27T12:55:49.209Z,50.70
2019-04-27T12:58:22.737Z,50.80
2019-04-27T13:00:59.484Z,51.10
2019-04-27T13:03:28.312Z,50.70
2019-04-27T13:05:57.137Z,50.40
2019-04-27T13:08:26.100Z,51.30
2019-04-27T13:10:55.709Z,51.70
2019-04-27T13:13:26.650Z,51.60
2019-04-27T13:15:56.286Z,52.10
2019-04-27T13:18:25.838Z,52.70
2019-04-27T13:20:54.732Z,52.60
2019-04-27T13:23:23.553Z,51.70
2019-04-27T13:25:52.329Z,51.70
2019-04-27T13:28:21.167Z,51.40
2019-04-27T13:30:49.982Z,52.60
2019-04-27T13:33:18.946Z,51.10
2019-04-27T13:35:47.748Z,50.10
2019-04-27T13:38:18.089Z,50.60
2019-04-27T13:40:48.731Z,50.50
2019-04-27T13:43:19.092Z,52.10
2019-04-27T13:46:08.114Z,50.80
2019-04-27T13:48:56.270Z,50.50
2019-04-27T13:51:32.906Z,50.70
2019-04-27T13:54:14.106Z,50.10
2019-04-27T13:56:32.469Z,50.10
2019-04-27T13:59:03.251Z,50.50
2019-04-27T14:01:32.398Z,50.10
2019-04-27T14:04:01.251Z,50.40
2019-04-27T14:06:30.194Z,50.30
2019-04-27T14:08:58.943Z,50.30
2019-04-27T14:11:29.038Z,50.70
2019-04-27T14:13:57.971Z,50.80
2019-04-27T14:16:26.801Z,51.20
2019-04-27T14:18:55.556Z,51.10
2019-04-27T14:21:24.417Z,50.80
2019-04-27T14:23:53.259Z,51.20
2019-04-27T14:26:21.976Z,51.20
2019-04-27T14:28:50.746Z,50.40
2019-04-27T14:31:19.572Z,50.50
2019-04-27T14:33:48.579Z,50.20
2019-04-27T14:36:18.278Z,50.30
2019-04-27T14:38:47.944Z,51.00
2019-04-27T14:41:19.133Z,51.60
2019-04-27T14:43:49.924Z,52.20
2019-04-27T14:46:18.782Z,52.70
2019-04-27T14:48:47.644Z,52.80
2019-04-27T14:51:16.388Z,53.60
2019-04-27T14:53:45.142Z,53.70
2019-04-27T14:56:13.980Z,53.70
2019-04-27T14:58:42.801Z,53.50
2019-04-27T15:01:11.648Z,53.10
2019-04-27T15:03:40.376Z,53.90
2019-04-27T15:06:09.182Z,53.00
2019-04-27T15:08:38.379Z,52.70
2019-04-27T15:11:10.347Z,52.80
2019-04-27T15:13:43.049Z,52.40
2019-04-27T15:16:09.319Z,52.40
2019-04-27T15:18:43.528Z,52.50
2019-04-27T15:21:10.425Z,52.40
2019-04-27T15:23:41.270Z,52.30
2019-04-27T15:26:10.466Z,52.20
2019-04-27T15:28:44.678Z,52.10
2019-04-27T15:31:22.291Z,52.90
2019-04-27T15:33:53.308Z,52.40
2019-04-27T15:36:22.830Z,52.10
2019-04-27T15:38:53.790Z,52.70
2019-04-27T15:41:24.449Z,52.60
2019-04-27T15:43:54.729Z,52.50
2019-04-27T15:46:23.544Z,52.70
2019-04-27T15:48:54.329Z,52.30
2019-04-27T15:51:22.873Z,52.20
2019-04-27T15:53:53.941Z,52.10
2019-04-27T15:56:22.107Z,52.00
2019-04-27T15:58:50.905Z,51.80
2019-04-27T16:01:19.704Z,51.80
2019-04-27T16:03:48.524Z,51.40
2019-04-27T16:06:19.052Z,51.60
2019-04-27T16:08:49.185Z,51.40
2019-04-27T16:11:19.795Z,50.70
2019-04-27T16:13:48.895Z,51.30
2019-04-27T16:16:19.140Z,50.70
2019-04-27T16:18:49.105Z,51.20
2019-04-27T16:21:41.579Z,50.50
2019-04-27T16:24:08.490Z,50.40
2019-04-27T16:26:38.743Z,50.90
2019-04-27T16:29:08.255Z,50.90
2019-04-27T16:31:38.501Z,50.60
2019-04-27T16:34:08.310Z,50.10
2019-04-27T16:36:43.426Z,50.50
2019-04-27T16:39:09.997Z,50.60
2019-04-27T16:41:41.803Z,50.50
2019-04-27T16:44:10.850Z,50.60
2019-04-27T16:46:42.917Z,50.80
2019-04-27T16:49:14.730Z,50.60
2019-04-27T16:51:40.902Z,51.20
2019-04-27T16:54:11.163Z,50.80
2019-04-27T16:56:40.024Z,50.90
2019-04-27T16:59:33.903Z,50.90
2019-04-27T17:01:41.732Z,51.20
2019-04-27T17:04:11.306Z,51.00
2019-04-27T17:06:46.006Z,51.40
2019-04-27T17:09:11.782Z,51.30
2019-04-27T17:11:43.656Z,51.20
2019-04-27T17:14:15.764Z,50.90
2019-04-27T17:16:51.989Z,50.70
2019-04-27T17:19:28.661Z,50.50
2019-04-27T17:21:58.543Z,50.80
2019-04-27T17:24:41.919Z,51.00
2019-04-27T17:27:05.939Z,50.80
2019-04-27T17:29:38.525Z,51.20
2019-04-27T17:32:11.168Z,51.10
2019-04-27T17:34:39.980Z,51.00
2019-04-27T17:37:08.888Z,51.50
2019-04-27T17:39:38.743Z,51.60
2019-04-27T17:42:29.729Z,52.20
2019-04-27T17:45:00.378Z,51.70
2019-04-27T17:47:29.786Z,51.00
2019-04-27T17:49:58.427Z,51.10
2019-04-27T17:52:27.264Z,51.00
2019-04-27T17:54:56.738Z,51.40
2019-04-27T17:57:26.508Z,50.90
2019-04-27T18:00:00.190Z,50.80
2019-04-27T18:02:29.207Z,50.90
2019-04-27T18:04:58.841Z,50.70
2019-04-27T18:07:29.995Z,50.80
2019-04-27T18:09:58.551Z,50.70
2019-04-27T18:12:28.489Z,50.60
2019-04-27T18:14:58.162Z,50.70
2019-04-27T18:17:28.739Z,50.50
2019-04-27T18:19:59.591Z,50.20
2019-04-27T18:22:32.195Z,50.80
2019-04-27T18:25:06.289Z,50.80
2019-04-27T18:27:43.857Z,50.80
2019-04-27T18:30:15.092Z,50.60
2019-04-27T18:32:43.960Z,50.90
2019-04-27T18:35:12.766Z,50.40
2019-04-27T18:37:41.702Z,51.10
2019-04-27T18:40:10.477Z,50.80
2019-04-27T18:42:39.318Z,51.00
2019-04-27T18:45:08.519Z,50.60
2019-04-27T18:47:40.536Z,51.00
2019-04-27T18:50:14.694Z,51.30
2019-04-27T18:52:47.444Z,51.20
2019-04-27T18:55:16.870Z,51.00
2019-04-27T18:57:45.883Z,50.70
2019-04-27T19:00:16.741Z,50.70
2019-04-27T19:02:45.569Z,50.90
2019-04-27T19:05:14.483Z,50.90
2019-04-27T19:07:43.304Z,50.90
2019-04-27T19:10:19.245Z,51.30
2019-04-27T19:12:48.681Z,51.20
2019-04-27T19:15:18.328Z,50.80
2019-04-27T19:17:48.894Z,50.80
2019-04-27T19:20:18.658Z,51.50
2019-04-27T19:23:08.733Z,51.60
2019-04-27T19:25:48.289Z,51.80
2019-04-27T19:28:28.267Z,51.40
2019-04-27T19:31:02.060Z,51.20
2019-04-27T19:33:31.086Z,51.50
2019-04-27T19:35:59.929Z,51.70
2019-04-27T19:38:29.029Z,52.80
2019-04-27T19:40:57.859Z,52.00
2019-04-27T19:43:28.427Z,52.00
2019-04-27T19:45:58.431Z,52.10
2019-04-27T19:48:28.655Z,52.20
2019-04-27T19:50:57.569Z,52.60
2019-04-27T19:53:26.378Z,52.50
2019-04-27T19:56:04.464Z,52.50
2019-04-27T19:58:35.069Z,52.50
2019-04-27T20:01:14.544Z,52.50
2019-04-27T20:03:47.290Z,52.00
2019-04-27T20:06:16.135Z,51.80
2019-04-27T20:08:49.301Z,51.70
2019-04-27T20:11:18.088Z,52.60
2019-04-27T20:13:46.906Z,52.40
2019-04-27T20:16:15.723Z,52.60
2019-04-27T20:18:44.445Z,52.50
2019-04-27T20:21:13.304Z,52.80
2019-04-27T20:23:42.059Z,52.40
2019-04-27T20:26:10.882Z,52.20
2019-04-27T20:28:41.324Z,52.50
2019-04-27T20:31:10.333Z,52.70
2019-04-27T20:33:39.130Z,52.90
2019-04-27T20:36:07.931Z,52.60
2019-04-27T20:38:36.843Z,52.30
2019-04-27T20:41:05.680Z,52.60
2019-04-27T20:43:34.579Z,53.00
2019-04-27T20:46:03.413Z,52.70
2019-04-27T20:48:32.173Z,53.00
2019-04-27T20:51:01.383Z,53.30
2019-04-27T20:53:37.941Z,53.40
2019-04-27T20:56:25.964Z,53.10
2019-04-27T20:58:54.766Z,53.40
2019-04-27T21:01:23.569Z,53.30
2019-04-27T21:03:53.969Z,53.20
2019-04-27T21:06:29.847Z,53.30
2019-04-27T21:08:58.682Z,53.40
2019-04-27T21:11:30.768Z,53.50
2019-04-27T21:14:01.025Z,53.60
2019-04-27T21:16:31.358Z,53.70
2019-04-27T21:19:01.793Z,53.90
2019-04-27T21:21:31.051Z,53.70
2019-04-27T21:23:59.782Z,53.70
2019-04-27T21:26:28.610Z,53.80
2019-04-27T21:28:57.439Z,54.00
2019-04-27T21:31:26.275Z,53.70
2019-04-27T21:33:55.117Z,53.70
2019-04-27T21:36:23.901Z,53.90
2019-04-27T21:38:52.835Z,53.80
2019-04-27T21:41:22.722Z,54.00
2019-04-27T21:43:51.559Z,53.80
2019-04-27T21:46:21.037Z,53.60
2019-04-27T21:48:50.829Z,53.70
2019-04-27T21:51:19.603Z,53.60
2019-04-27T21:54:02.196Z,53.70
2019-04-27T21:56:31.330Z,53.80
2019-04-27T21:59:01.004Z,53.70
2019-04-27T22:01:31.948Z,53.60
2019-04-27T22:04:01.141Z,53.60
2019-04-27T22:06:29.899Z,53.70
2019-04-27T22:08:58.729Z,53.70
2019-04-27T22:11:27.491Z,53.70
2019-04-27T22:13:56.224Z,53.50
2019-04-27T22:16:25.081Z,53.40
2019-04-27T22:18:53.888Z,53.50
2019-04-27T22:21:22.724Z,53.60
2019-04-27T22:23:55.571Z,53.60
2019-04-27T22:26:24.402Z,53.60
2019-04-27T22:28:53.173Z,53.80
2019-04-27T22:31:21.998Z,53.60
2019-04-27T22:33:54.234Z,54.00
2019-04-27T22:36:21.306Z,53.60
2019-04-27T22:38:51.636Z,53.70
2019-04-27T22:41:22.261Z,53.70
2019-04-27T22:43:58.677Z,53.60
2019-04-27T22:46:30.747Z,53.90
2019-04-27T22:48:59.684Z,54.00
2019-04-27T22:51:28.498Z,54.20
2019-04-27T22:53:57.329Z,54.00
2019-04-27T22:56:26.200Z,54.30
2019-04-27T22:59:14.539Z,54.30
2019-04-27T23:01:44.922Z,54.30
2019-04-27T23:04:34.622Z,54.30
2019-04-27T23:07:03.556Z,54.40
2019-04-27T23:09:32.533Z,54.40
2019-04-27T23:12:01.857Z,54.30
2019-04-27T23:14:31.283Z,54.50
2019-04-27T23:17:03.181Z,55.10
2019-04-27T23:19:32.161Z,54.40
2019-04-27T23:22:01.185Z,54.40
2019-04-27T23:24:31.089Z,54.10
2019-04-27T23:27:03.225Z,54.30
2019-04-27T23:29:30.624Z,54.00
2019-04-27T23:32:02.421Z,54.00
2019-04-27T23:34:31.592Z,54.00
2019-04-27T23:37:00.585Z,54.20
2019-04-27T23:39:29.404Z,54.30
2019-04-27T23:41:58.366Z,54.10
2019-04-27T23:44:27.163Z,54.10
2019-04-27T23:46:55.902Z,53.70
2019-04-27T23:49:24.710Z,54.10
2019-04-27T23:51:55.121Z,54.10
2019-04-27T23:54:23.946Z,54.20
2019-04-27T23:56:52.767Z,53.90
2019-04-27T23:59:25.095Z,53.80
